Time;durP1;ratioP1;P1;durP2;ratioP2;P2;SDS_P1;SDS_P2;PMS_P1;PMS_P2;Temp;Humidity;BMP_temperature;BMP_pressure;BME280_temperature;BME280_humidity;BME280_pressure;Samples;Min_cycle;Max_cycle;Signal;HPM_P1;HPM_P2
2022/04/12 00:00:13;;;;;;;2.75;2.53;;;9.10;99.90;;;;;;5114935;28;20820;-87
2022/04/12 00:02:40;;;;;;;3.42;2.47;;;9.00;99.90;;;;;;5114827;28;20380;-87
2022/04/12 00:05:06;;;;;;;3.17;2.30;;;8.90;99.90;;;;;;5094528;28;20374;-87
2022/04/12 00:07:32;;;;;;;2.97;2.55;;;8.90;99.90;;;;;;5094786;28;20806;-87
2022/04/12 00:09:58;;;;;;;3.40;2.40;;;8.80;99.90;;;;;;5094539;28;20374;-87
2022/04/12 00:12:23;;;;;;;2.47;2.28;;;9.00;99.90;;;;;;5093656;28;20382;-87
2022/04/12 00:14:50;;;;;;;3.42;2.60;;;9.00;99.90;;;;;;5093230;28;20821;-87
2022/04/12 00:20:00;;;;;;;3.27;2.57;;;9.60;99.90;;;;;;5094417;28;20910;-87
2022/04/12 00:22:26;;;;;;;3.77;2.63;;;8.70;99.90;;;;;;5093209;28;20382;-87
2022/04/12 00:24:52;;;;;;;3.20;2.40;;;8.70;99.90;;;;;;5093144;28;20916;-87
2022/04/12 00:27:17;;;;;;;2.60;2.40;;;8.70;99.90;;;;;;5094545;28;20473;-87
2022/04/12 00:29:43;;;;;;;3.30;2.80;;;8.70;99.90;;;;;;5093173;28;20420;-87
2022/04/12 00:32:09;;;;;;;2.90;2.60;;;8.50;99.90;;;;;;5093094;28;20405;-87
2022/04/12 00:34:34;;;;;;;3.92;3.08;;;8.50;99.90;;;;;;5093317;28;20430;-87
2022/04/12 00:37:00;;;;;;;3.28;2.97;;;8.50;99.90;;;;;;5094345;28;20717;-87
2022/04/12 00:39:26;;;;;;;3.40;3.10;;;9.40;99.90;;;;;;5092828;28;20389;-87
2022/04/12 00:41:51;;;;;;;3.38;3.15;;;8.20;99.90;;;;;;5094404;28;20446;-87
2022/04/12 00:44:17;;;;;;;3.85;3.13;;;8.30;99.90;;;;;;5089348;28;20756;-87
2022/04/12 00:46:42;;;;;;;3.30;3.00;;;8.30;99.90;;;;;;5094267;28;20386;-87
2022/04/12 00:49:08;;;;;;;5.60;3.00;;;8.50;99.90;;;;;;5093369;28;20461;-87
2022/04/12 00:51:34;;;;;;;3.88;3.00;;;8.40;99.90;;;;;;5092790;28;20394;-87
2022/04/12 00:54:01;;;;;;;3.60;3.30;;;8.30;99.90;;;;;;5092832;28;20465;-87
2022/04/12 00:56:26;;;;;;;3.80;3.25;;;8.30;99.90;;;;;;5093703;28;20854;-87
2022/04/12 00:58:53;;;;;;;3.65;3.03;;;8.10;99.90;;;;;;5112530;28;20380;-87
2022/04/12 01:01:18;;;;;;;3.50;3.20;;;8.10;99.90;;;;;;5113954;28;20426;-87
2022/04/12 01:03:45;;;;;;;3.67;3.38;;;8.20;99.90;;;;;;5103720;28;20903;-87
2022/04/12 01:06:11;;;;;;;3.60;3.30;;;8.30;99.90;;;;;;5093578;28;20387;-87
2022/04/12 01:08:37;;;;;;;3.50;3.20;;;8.30;99.90;;;;;;5090317;28;20419;-87
2022/04/12 01:11:07;;;;;;;3.63;3.33;;;8.40;99.90;;;;;;5112079;28;20403;-87
2022/04/12 01:13:36;;;;;;;3.28;2.90;;;8.90;99.90;;;;;;5112426;28;20398;-87
2022/04/12 01:16:04;;;;;;;3.53;3.22;;;8.40;99.90;;;;;;5113462;28;20404;-87
2022/04/12 01:18:30;;;;;;;3.72;3.42;;;8.20;99.90;;;;;;5113275;28;20452;-87
2022/04/12 01:20:56;;;;;;;3.85;3.50;;;7.90;99.90;;;;;;5112660;28;20420;-87
2022/04/12 01:23:33;;;;;;;4.28;3.47;;;8.30;99.90;;;;;;5112155;28;20487;-87
2022/04/12 01:25:59;;;;;;;3.60;3.25;;;8.40;99.90;;;;;;5112264;28;20400;-87
2022/04/12 01:28:25;;;;;;;3.97;3.55;;;8.20;99.90;;;;;;5108587;28;20396;-87
2022/04/12 01:30:51;;;;;;;3.85;3.55;;;8.10;99.90;;;;;;5091509;28;20400;-87
2022/04/12 01:33:17;;;;;;;4.80;4.13;;;8.00;99.90;;;;;;5113327;28;20383;-87
2022/04/12 01:35:43;;;;;;;4.30;3.90;;;7.90;99.90;;;;;;5112549;28;20368;-87
2022/04/12 01:38:08;;;;;;;5.03;4.05;;;8.00;99.90;;;;;;5113081;28;20380;-87
2022/04/12 01:40:34;;;;;;;4.28;3.88;;;8.20;99.90;;;;;;5113265;28;20376;-87
2022/04/12 01:43:02;;;;;;;4.03;3.50;;;7.80;99.90;;;;;;5111988;28;20384;-87
2022/04/12 01:45:28;;;;;;;4.63;4.00;;;7.90;99.90;;;;;;5113587;28;20392;-87
2022/04/12 01:47:55;;;;;;;4.10;3.70;;;7.80;99.90;;;;;;5113140;28;20434;-88
2022/04/12 01:50:21;;;;;;;3.60;3.30;;;7.90;99.90;;;;;;5113132;28;20404;-87
2022/04/12 01:52:47;;;;;;;3.75;3.45;;;7.90;99.90;;;;;;5112993;28;20384;-87
2022/04/12 01:55:14;;;;;;;3.90;3.50;;;8.00;99.90;;;;;;5112992;28;20404;-87
2022/04/12 01:57:40;;;;;;;3.60;3.30;;;7.90;99.90;;;;;;5112322;28;20413;-87
2022/04/12 02:00:07;;;;;;;3.80;3.40;;;7.90;99.90;;;;;;5102418;28;20380;-88
2022/04/12 02:02:33;;;;;;;4.75;3.70;;;7.80;99.90;;;;;;5117376;28;20537;-87
2022/04/12 02:04:59;;;;;;;3.65;3.08;;;7.80;99.90;;;;;;5097954;28;20408;-87
2022/04/12 02:07:26;;;;;;;5.22;2.90;;;7.80;99.90;;;;;;5095959;28;20993;-87
2022/04/12 02:09:52;;;;;;;3.25;2.90;;;7.90;99.90;;;;;;5093086;28;20408;-87
2022/04/12 02:12:18;;;;;;;3.30;3.00;;;7.90;99.90;;;;;;5092463;28;20420;-87
2022/04/12 02:14:44;;;;;;;4.50;3.10;;;7.80;99.90;;;;;;5095132;28;20394;-87
2022/04/12 02:17:10;;;;;;;4.00;3.47;;;7.80;99.90;;;;;;5093465;28;20382;-87
2022/04/12 02:19:35;;;;;;;3.87;3.57;;;7.70;99.90;;;;;;5095454;28;20398;-87
2022/04/12 02:22:01;;;;;;;3.13;2.60;;;7.70;99.90;;;;;;5096903;28;20397;-87
2022/04/12 02:24:27;;;;;;;3.33;2.90;;;7.80;99.90;;;;;;5096504;28;20447;-87
2022/04/12 02:26:52;;;;;;;3.47;3.17;;;7.70;99.90;;;;;;5096526;28;20874;-87
2022/04/12 02:29:18;;;;;;;3.83;3.53;;;7.60;99.90;;;;;;5096603;28;20457;-87
2022/04/12 02:31:43;;;;;;;4.10;3.70;;;7.50;99.90;;;;;;5096364;28;20401;-87
2022/04/12 02:34:09;;;;;;;3.80;3.50;;;7.50;99.90;;;;;;5094659;28;20386;-87
2022/04/12 02:36:35;;;;;;;3.90;3.60;;;7.40;99.90;;;;;;5094266;28;20856;-87
2022/04/12 02:39:01;;;;;;;4.40;4.00;;;7.50;99.90;;;;;;5096119;28;20386;-87
2022/04/12 02:41:27;;;;;;;4.60;4.10;;;7.40;99.90;;;;;;5096136;28;20439;-87
2022/04/12 02:43:53;;;;;;;4.60;4.20;;;7.20;99.90;;;;;;5115555;28;20400;-87
2022/04/12 02:46:18;;;;;;;5.50;4.00;;;7.80;99.90;;;;;;5116618;28;20384;-87
2022/04/12 02:48:44;;;;;;;4.23;3.83;;;7.40;99.90;;;;;;5114839;28;20380;-87
2022/04/12 02:51:09;;;;;;;4.67;4.13;;;7.40;99.90;;;;;;5116531;28;20889;-86
2022/04/12 02:53:35;;;;;;;4.20;3.80;;;7.50;99.90;;;;;;5116287;28;20496;-86
2022/04/12 02:56:01;;;;;;;3.80;3.10;;;8.10;99.90;;;;;;5115485;28;20410;-87
2022/04/12 02:58:27;;;;;;;3.20;2.90;;;7.40;99.90;;;;;;5104997;28;20442;-87
2022/04/12 03:00:53;;;;;;;3.90;3.35;;;7.40;99.90;;;;;;5103250;28;20388;-86
2022/04/12 03:03:18;;;;;;;3.13;2.90;;;7.50;99.90;;;;;;5111373;28;20405;-86
2022/04/12 03:05:44;;;;;;;3.70;3.40;;;7.50;99.90;;;;;;5094609;28;20472;-87
2022/04/12 03:08:09;;;;;;;3.67;3.33;;;7.40;99.90;;;;;;5092683;28;20421;-86
2022/04/12 03:10:35;;;;;;;4.63;3.53;;;7.30;99.90;;;;;;5093948;28;20409;-87
2022/04/12 03:13:01;;;;;;;3.72;3.42;;;7.30;99.90;;;;;;5095806;28;20416;-87
2022/04/12 03:15:26;;;;;;;3.63;3.30;;;7.30;99.90;;;;;;5095789;28;20714;-87
2022/04/12 03:17:52;;;;;;;3.92;3.53;;;7.20;99.90;;;;;;5094315;28;20397;-87
2022/04/12 03:20:18;;;;;;;3.70;3.30;;;7.30;99.90;;;;;;5074097;28;20426;-87
2022/04/12 03:22:43;;;;;;;3.47;3.17;;;7.30;99.90;;;;;;5086751;28;20959;-87
2022/04/12 03:25:10;;;;;;;4.90;3.30;;;7.20;99.90;;;;;;5093586;28;20771;-87
2022/04/12 03:27:36;;;;;;;4.05;3.55;;;7.10;99.90;;;;;;5093676;28;20386;-87
2022/04/12 03:30:02;;;;;;;3.65;3.35;;;7.00;99.90;;;;;;5094908;28;20408;-87
2022/04/12 03:32:27;;;;;;;3.90;3.60;;;6.90;99.90;;;;;;5093839;28;20950;-87
2022/04/12 03:34:53;;;;;;;4.93;3.37;;;6.80;99.90;;;;;;5093802;28;20395;-86
2022/04/12 03:37:19;;;;;;;5.67;3.70;;;6.90;99.90;;;;;;5102299;28;20372;-87
2022/04/12 03:39:45;;;;;;;3.80;3.50;;;6.90;99.90;;;;;;5113326;28;20460;-87
2022/04/12 03:42:11;;;;;;;4.43;4.03;;;6.80;99.90;;;;;;5114997;28;20441;-87
2022/04/12 03:44:40;;;;;;;6.10;4.20;;;6.70;99.90;;;;;;5113520;28;20388;-87
2022/04/12 03:47:07;;;;;;;3.78;3.42;;;6.70;99.90;;;;;;5113626;28;20384;-87
2022/04/12 03:49:33;;;;;;;4.40;3.30;;;6.70;99.90;;;;;;5115119;28;20388;-87
2022/04/12 03:51:59;;;;;;;4.18;3.78;;;6.80;99.90;;;;;;5113600;28;20404;-87
2022/04/12 03:54:25;;;;;;;3.97;3.45;;;6.80;99.90;;;;;;5114781;28;20375;-87
2022/04/12 03:56:51;;;;;;;4.20;3.80;;;6.80;99.90;;;;;;5114612;28;20720;-86
2022/04/12 03:59:16;;;;;;;4.10;3.40;;;6.70;99.90;;;;;;5121550;28;20372;-87
2022/04/12 04:01:42;;;;;;;4.40;3.60;;;6.70;99.90;;;;;;5117315;28;20406;-87
2022/04/12 04:04:09;;;;;;;4.63;4.22;;;6.60;99.90;;;;;;5106260;28;20374;-87
2022/04/12 04:06:35;;;;;;;4.88;4.38;;;7.00;99.90;;;;;;5110126;28;20473;-87
2022/04/12 04:09:01;;;;;;;4.30;3.90;;;6.50;99.90;;;;;;5105945;28;20393;-87
2022/04/12 04:11:26;;;;;;;4.40;4.00;;;6.50;99.90;;;;;;5105300;28;20428;-87
2022/04/12 04:13:52;;;;;;;4.73;4.03;;;6.50;99.90;;;;;;5095797;28;20386;-87
2022/04/12 04:16:18;;;;;;;4.93;4.13;;;6.60;99.90;;;;;;5094115;28;20378;-87
2022/04/12 04:18:44;;;;;;;5.28;4.10;;;6.50;99.90;;;;;;5096006;28;20382;-86
2022/04/12 04:21:09;;;;;;;7.30;4.30;;;6.60;99.90;;;;;;5095725;28;20469;-87
2022/04/12 04:23:35;;;;;;;4.47;4.07;;;6.50;99.90;;;;;;5093877;28;20394;-87
2022/04/12 04:26:01;;;;;;;4.97;4.15;;;6.60;99.90;;;;;;5092578;28;20906;-86
2022/04/12 04:28:29;;;;;;;4.37;3.97;;;6.50;99.90;;;;;;5093726;28;20393;-87
2022/04/12 04:30:56;;;;;;;4.47;3.97;;;6.60;99.90;;;;;;5093468;28;20405;-87
2022/04/12 04:33:22;;;;;;;4.63;4.00;;;6.40;99.90;;;;;;5091240;28;20386;-87
2022/04/12 04:35:49;;;;;;;4.70;4.30;;;6.50;99.90;;;;;;5082533;28;20486;-87
2022/04/12 04:38:15;;;;;;;5.00;4.53;;;6.40;99.90;;;;;;5092372;28;20883;-87
2022/04/12 04:40:41;;;;;;;5.50;4.72;;;6.40;99.90;;;;;;5092367;28;20386;-87
2022/04/12 04:43:07;;;;;;;5.15;4.65;;;6.40;99.90;;;;;;5094280;28;20772;-87
2022/04/12 04:45:37;;;;;;;5.70;5.15;;;6.80;99.90;;;;;;5093430;28;20413;-87
2022/04/12 04:48:04;;;;;;;5.78;5.20;;;6.30;99.90;;;;;;5093336;28;20382;-89
2022/04/12 04:50:37;;;;;;;5.95;5.25;;;6.40;99.90;;;;;;5096403;28;20430;-88
2022/04/12 04:53:05;;;;;;;6.25;5.10;;;6.40;99.90;;;;;;5127728;22;20430;-83
2022/04/12 04:55:31;;;;;;;5.35;3.50;;;6.50;99.90;;;;;;5098671;28;20415;-82
2022/04/12 04:57:59;;;;;;;4.07;3.77;;;6.60;99.90;;;;;;5097130;28;20398;-82
2022/04/12 05:00:26;;;;;;;4.72;3.75;;;7.30;99.90;;;;;;5105025;28;20397;-82
2022/04/12 05:02:54;;;;;;;5.00;4.30;;;6.50;99.90;;;;;;5092514;28;20386;-83
2022/04/12 05:05:21;;;;;;;4.57;4.18;;;6.80;99.90;;;;;;5116349;28;20380;-82
2022/04/12 05:07:48;;;;;;;4.83;4.40;;;6.50;99.90;;;;;;5116838;28;20418;-82
2022/04/12 05:10:26;;;;;;;5.22;3.97;;;6.30;99.90;;;;;;5112396;28;20377;-82
2022/04/12 05:12:51;;;;;;;4.95;4.38;;;6.30;99.90;;;;;;5106392;28;20389;-83
2022/04/12 05:15:17;;;;;;;5.18;4.68;;;6.40;99.90;;;;;;5118987;28;20383;-83
2022/04/12 05:17:51;;;;;;;5.60;4.90;;;6.30;99.90;;;;;;5119289;28;20410;-83
2022/04/12 05:20:21;;;;;;;6.22;4.78;;;6.30;99.90;;;;;;5116900;28;20383;-82
2022/04/12 05:22:49;;;;;;;6.75;6.05;;;6.30;99.90;;;;;;5119017;28;20376;-83
2022/04/12 05:25:15;;;;;;;7.10;5.32;;;6.50;99.90;;;;;;5119119;28;20416;-83
2022/04/12 05:27:44;;;;;;;5.70;5.00;;;6.90;99.90;;;;;;5116233;28;20384;-83
2022/04/12 05:30:16;;;;;;;5.25;4.63;;;6.50;99.90;;;;;;5118044;28;20391;-82
2022/04/12 05:32:41;;;;;;;5.00;4.57;;;6.50;99.90;;;;;;5121463;28;20467;-83
2022/04/12 05:35:08;;;;;;;5.30;4.88;;;6.40;99.90;;;;;;5125911;28;20404;-83
2022/04/12 05:37:44;;;;;;;5.85;5.25;;;6.40;99.90;;;;;;5107839;28;20386;-83
2022/04/12 05:40:12;;;;;;;7.03;5.45;;;6.70;99.90;;;;;;5098691;28;20376;-83
2022/04/12 05:42:38;;;;;;;6.28;5.28;;;6.40;99.90;;;;;;5119670;28;20394;-83
2022/04/12 05:45:05;;;;;;;5.80;5.22;;;6.40;99.90;;;;;;5118619;28;20924;-83
2022/04/12 05:47:43;;;;;;;6.07;5.47;;;6.50;99.90;;;;;;5106325;28;20433;-83
2022/04/12 05:50:10;;;;;;;6.85;6.18;;;6.60;99.90;;;;;;5118551;28;20380;-83
2022/04/12 05:52:36;;;;;;;5.68;5.13;;;6.60;99.90;;;;;;5119000;28;20396;-83
2022/04/12 05:55:01;;;;;;;5.78;5.28;;;6.60;99.90;;;;;;5119794;28;20747;-83
2022/04/12 05:57:27;;;;;;;6.47;5.85;;;6.60;99.90;;;;;;5119595;28;20376;-83
2022/04/12 05:59:53;;;;;;;6.30;5.70;;;6.70;99.90;;;;;;5118317;28;20388;-83
2022/04/12 06:02:18;;;;;;;6.75;6.05;;;6.70;99.90;;;;;;5106399;28;20417;-83
2022/04/12 06:04:44;;;;;;;6.28;5.68;;;6.80;99.90;;;;;;5113383;28;20464;-83
2022/04/12 06:07:10;;;;;;;11.00;7.47;;;6.90;99.90;;;;;;5117903;28;20475;-83
2022/04/12 06:09:35;;;;;;;9.85;8.80;;;6.60;99.90;;;;;;5110909;28;20402;-83
2022/04/12 06:12:01;;;;;;;9.10;7.10;;;6.30;99.90;;;;;;5096235;28;20398;-83
2022/04/12 06:14:28;;;;;;;8.70;7.40;;;6.40;99.90;;;;;;5098244;28;20392;-83
2022/04/12 06:16:54;;;;;;;7.38;6.78;;;6.40;99.90;;;;;;5111123;28;20441;-83
2022/04/12 06:19:20;;;;;;;8.73;6.87;;;6.50;99.90;;;;;;5096526;28;20424;-83
2022/04/12 06:21:53;;;;;;;7.88;7.07;;;6.70;99.90;;;;;;5112020;28;20388;-81
2022/04/12 06:24:22;;;;;;;8.45;7.65;;;6.90;99.90;;;;;;5116863;28;20416;-81
2022/04/12 06:26:47;;;;;;;8.20;7.40;;;7.10;99.90;;;;;;5118409;28;20451;-81
2022/04/12 06:29:13;;;;;;;8.23;7.50;;;7.10;99.90;;;;;;5116475;28;20419;-82
2022/04/12 06:31:39;;;;;;;8.83;8.03;;;7.10;99.90;;;;;;5114784;28;20440;-82
2022/04/12 06:34:07;;;;;;;9.60;8.57;;;7.30;99.90;;;;;;5096190;28;20378;-84
2022/04/12 06:36:34;;;;;;;10.07;9.07;;;7.30;99.90;;;;;;5100074;28;20747;-82
2022/04/12 06:39:06;;;;;;;9.98;9.15;;;7.40;99.90;;;;;;5107116;28;20443;-82
2022/04/12 06:41:32;;;;;;;10.18;9.20;;;7.30;99.90;;;;;;5118011;28;20430;-82
2022/04/12 06:43:57;;;;;;;9.75;8.85;;;7.50;99.90;;;;;;5098146;28;20756;-83
2022/04/12 06:46:23;;;;;;;10.00;9.07;;;7.60;99.90;;;;;;5116119;28;20391;-82
2022/04/12 06:48:48;;;;;;;10.20;9.30;;;7.90;99.90;;;;;;5113969;28;20384;-82
2022/04/12 06:51:16;;;;;;;10.05;9.15;;;7.80;99.90;;;;;;5102799;28;20909;-82
2022/04/12 06:53:50;;;;;;;10.25;9.35;;;7.90;99.90;;;;;;5097689;28;20397;-82
2022/04/12 06:56:17;;;;;;;10.30;9.33;;;8.00;99.90;;;;;;5110965;28;20389;-82
2022/04/12 06:58:45;;;;;;;9.83;8.93;;;8.30;99.90;;;;;;5103996;28;20405;-83
2022/04/12 07:01:13;;;;;;;10.27;9.27;;;8.40;99.90;;;;;;5102568;28;20413;-83
2022/04/12 07:03:52;;;;;;;10.32;9.43;;;8.20;99.90;;;;;;5103449;28;20408;-82
2022/04/12 07:06:24;;;;;;;10.20;9.30;;;8.30;99.90;;;;;;5109419;28;20384;-82
2022/04/12 07:08:53;;;;;;;9.80;8.90;;;8.30;99.90;;;;;;5113027;28;20745;-83
2022/04/12 07:11:23;;;;;;;10.32;9.50;;;8.50;99.90;;;;;;5097976;28;20406;-83
2022/04/12 07:13:52;;;;;;;9.70;8.88;;;8.60;99.90;;;;;;5101691;28;20884;-83
2022/04/12 07:16:24;;;;;;;9.82;8.93;;;8.70;99.90;;;;;;5101024;28;20396;-83
2022/04/12 07:19:04;;;;;;;9.60;8.77;;;8.80;99.90;;;;;;5100341;28;20405;-84
2022/04/12 07:21:36;;;;;;;10.15;9.15;;;9.00;99.90;;;;;;5099268;28;20461;-84
2022/04/12 07:24:03;;;;;;;10.38;9.52;;;9.00;99.90;;;;;;5101912;28;20422;-84
2022/04/12 07:26:40;;;;;;;10.35;9.35;;;9.10;99.90;;;;;;5102995;28;20875;-84
2022/04/12 07:29:06;;;;;;;10.95;10.00;;;9.20;99.90;;;;;;5092892;28;20414;-84
2022/04/12 07:31:36;;;;;;;10.38;9.48;;;9.10;99.90;;;;;;5107026;28;20402;-84
2022/04/12 07:34:11;;;;;;;14.77;10.43;;;9.20;99.90;;;;;;5104740;28;20746;-84
2022/04/12 07:36:47;;;;;;;11.75;10.68;;;9.20;99.90;;;;;;5103118;28;20374;-84
2022/04/12 07:39:19;;;;;;;11.27;10.38;;;9.30;99.90;;;;;;5104380;28;20471;-83
2022/04/12 07:41:45;;;;;;;11.35;10.23;;;9.30;99.90;;;;;;5113335;28;20384;-84
2022/04/12 07:44:12;;;;;;;11.40;10.25;;;9.50;99.90;;;;;;5121808;28;20384;-84
2022/04/12 07:46:37;;;;;;;11.13;10.23;;;9.70;99.90;;;;;;5121571;28;20388;-83
2022/04/12 07:49:03;;;;;;;10.70;9.70;;;9.60;99.90;;;;;;5120785;28;20384;-84
2022/04/12 07:51:41;;;;;;;11.37;10.27;;;9.70;99.90;;;;;;5114705;28;20420;-84
2022/04/12 07:54:08;;;;;;;10.85;9.85;;;9.90;99.90;;;;;;5101980;28;21078;-84
2022/04/12 07:56:40;;;;;;;10.85;9.85;;;10.10;99.90;;;;;;5108755;28;20727;-84
2022/04/12 07:59:10;;;;;;;10.40;9.60;;;10.10;99.90;;;;;;5116056;28;20852;-84
2022/04/12 08:01:37;;;;;;;9.57;8.77;;;10.20;99.90;;;;;;5110675;28;20783;-84
2022/04/12 08:04:03;;;;;;;10.07;9.10;;;10.40;99.90;;;;;;5104797;28;20404;-84
2022/04/12 08:06:35;;;;;;;10.23;9.23;;;10.40;99.90;;;;;;5098307;28;20405;-85
2022/04/12 08:09:01;;;;;;;9.60;8.80;;;10.40;99.90;;;;;;5093240;28;20389;-83
2022/04/12 08:11:27;;;;;;;9.00;8.20;;;10.30;99.90;;;;;;5116116;28;20396;-83
2022/04/12 08:13:53;;;;;;;8.82;8.02;;;10.50;99.90;;;;;;5097583;28;20380;-83
2022/04/12 08:16:19;;;;;;;8.45;7.65;;;10.70;99.90;;;;;;5099239;28;20776;-83
2022/04/12 08:18:45;;;;;;;9.00;8.20;;;10.80;99.90;;;;;;5109603;28;20459;-84
2022/04/12 08:21:15;;;;;;;8.48;7.78;;;10.80;99.90;;;;;;5120804;28;20391;-85
2022/04/12 08:23:45;;;;;;;8.90;8.20;;;11.10;99.90;;;;;;5108100;28;20866;-85
2022/04/12 08:26:15;;;;;;;8.30;7.50;;;11.10;99.90;;;;;;5102010;28;20405;-85
2022/04/12 08:28:42;;;;;;;8.00;7.30;;;11.20;99.90;;;;;;5099212;28;20389;-85
2022/04/12 08:31:14;;;;;;;8.23;7.28;;;11.40;99.90;;;;;;5101231;28;20900;-85
2022/04/12 08:33:52;;;;;;;8.00;7.30;;;11.40;99.90;;;;;;5101025;28;20397;-85
2022/04/12 08:36:25;;;;;;;7.60;6.90;;;11.50;99.90;;;;;;5101910;28;20378;-85
2022/04/12 08:38:54;;;;;;;7.22;6.63;;;11.50;99.90;;;;;;5113302;28;20390;-85
2022/04/12 08:41:26;;;;;;;8.60;6.63;;;11.60;99.90;;;;;;5100715;28;20532;-86
2022/04/12 08:43:59;;;;;;;7.63;6.93;;;11.70;99.90;;;;;;5097876;28;20389;-85
2022/04/12 08:46:28;;;;;;;8.70;6.78;;;11.80;99.90;;;;;;5114505;28;20388;-85
2022/04/12 08:48:57;;;;;;;6.63;6.03;;;11.90;99.90;;;;;;5114552;28;20386;-85
2022/04/12 08:51:29;;;;;;;8.00;6.78;;;12.10;99.90;;;;;;5111878;28;20449;-85
2022/04/12 08:54:01;;;;;;;7.68;7.05;;;12.10;99.90;;;;;;5118806;28;20966;-85
2022/04/12 08:56:29;;;;;;;7.50;6.67;;;12.20;99.90;;;;;;5119067;28;20525;-85
2022/04/12 08:58:55;;;;;;;6.40;5.90;;;12.30;99.90;;;;;;5121261;28;20396;-85
2022/04/12 09:01:23;;;;;;;6.45;5.85;;;12.40;99.90;;;;;;5109418;28;20887;-85
2022/04/12 09:04:08;;;;;;;7.20;6.30;;;12.50;99.90;;;;;;5101209;28;20447;-83
2022/04/12 09:06:35;;;;;;;6.45;5.93;;;12.50;99.90;;;;;;5100217;28;20872;-84
2022/04/12 09:09:16;;;;;;;7.13;6.53;;;12.60;99.90;;;;;;5100715;28;20388;-84
2022/04/12 09:11:43;;;;;;;7.05;6.45;;;12.70;99.90;;;;;;5104075;28;20758;-83
2022/04/12 09:14:15;;;;;;;7.88;6.18;;;12.80;99.90;;;;;;5120667;28;20387;-83
2022/04/12 09:16:45;;;;;;;9.48;6.18;;;12.90;99.90;;;;;;5111292;28;20382;-82
2022/04/12 09:19:10;;;;;;;9.30;6.35;;;13.00;99.90;;;;;;5127855;28;20381;-83
2022/04/12 09:21:47;;;;;;;7.83;6.50;;;13.10;99.90;;;;;;5112502;28;20869;-85
2022/04/12 09:24:23;;;;;;;8.10;7.40;;;13.20;99.90;;;;;;5103601;28;20394;-84
2022/04/12 09:26:58;;;;;;;7.65;7.05;;;13.30;99.90;;;;;;5098484;28;20402;-84
2022/04/12 09:29:33;;;;;;;8.30;7.50;;;13.30;99.90;;;;;;5100175;28;20383;-84
2022/04/12 09:32:00;;;;;;;8.57;7.78;;;13.40;99.90;;;;;;5099699;28;20410;-84
2022/04/12 09:34:28;;;;;;;9.00;7.88;;;13.60;99.90;;;;;;5097584;28;20752;-84
2022/04/12 09:36:57;;;;;;;8.40;7.60;;;13.80;99.90;;;;;;5098558;28;20418;-84
2022/04/12 09:39:26;;;;;;;8.00;7.40;;;13.80;99.90;;;;;;5114665;28;20384;-83
2022/04/12 09:41:52;;;;;;;8.13;7.33;;;13.90;99.90;;;;;;5119210;28;20380;-85
2022/04/12 09:44:25;;;;;;;7.63;6.93;;;14.00;99.90;;;;;;5103600;28;21024;-83
2022/04/12 09:46:57;;;;;;;8.10;6.88;;;14.20;99.90;;;;;;5084955;28;20894;-83
2022/04/12 09:49:50;;;;;;;14.32;7.43;;;14.30;99.90;;;;;;5097611;28;20529;-84
2022/04/12 09:52:15;;;;;;;7.15;6.45;;;14.50;99.90;;;;;;5096548;28;20412;-83
2022/04/12 09:54:44;;;;;;;7.95;6.90;;;14.70;99.90;;;;;;5113801;28;20410;-83
2022/04/12 09:57:27;;;;;;;8.50;6.85;;;14.90;99.90;;;;;;5094481;28;20412;-83
2022/04/12 09:59:59;;;;;;;7.17;6.57;;;15.00;99.90;;;;;;5095047;28;20381;-84
2022/04/12 10:02:31;;;;;;;8.65;6.60;;;15.20;99.90;;;;;;5098970;28;20393;-84
2022/04/12 10:05:01;;;;;;;7.05;6.45;;;15.50;99.90;;;;;;5098845;28;20394;-83
2022/04/12 10:07:33;;;;;;;6.47;5.93;;;15.40;99.90;;;;;;5099463;28;20461;-84
2022/04/12 10:10:05;;;;;;;6.43;5.93;;;15.60;99.90;;;;;;5100457;28;20380;-85
2022/04/12 10:12:35;;;;;;;6.67;6.03;;;15.90;99.90;;;;;;5097569;28;20528;-84
2022/04/12 10:15:13;;;;;;;7.60;7.00;;;16.10;99.90;;;;;;5097419;28;20480;-83
2022/04/12 10:17:44;;;;;;;6.93;6.32;;;16.20;99.90;;;;;;5094995;28;20425;-83
2022/04/12 10:20:15;;;;;;;7.33;6.63;;;16.30;99.90;;;;;;5100097;28;20460;-84
2022/04/12 10:22:45;;;;;;;7.32;6.07;;;16.50;99.90;;;;;;5102661;28;20386;-84
2022/04/12 10:25:18;;;;;;;6.93;6.22;;;16.80;99.90;;;;;;5114334;28;20381;-84
2022/04/12 10:27:45;;;;;;;6.05;5.45;;;16.90;99.90;;;;;;5106285;28;20388;-84
2022/04/12 10:30:26;;;;;;;6.47;5.70;;;17.10;99.90;;;;;;5121350;28;20441;-84
2022/04/12 10:33:09;;;;;;;6.63;6.03;;;17.30;99.90;;;;;;5121590;28;20386;-84
2022/04/12 10:35:51;;;;;;;6.90;6.03;;;17.30;99.90;;;;;;5100183;28;20436;-84
2022/04/12 10:38:18;;;;;;;6.55;5.95;;;17.60;99.90;;;;;;5116499;28;20433;-83
2022/04/12 10:40:51;;;;;;;8.40;6.18;;;17.70;99.90;;;;;;5115936;28;20388;-84
2022/04/12 10:43:38;;;;;;;8.00;6.13;;;17.90;99.90;;;;;;5101722;28;20388;-81
2022/04/12 10:46:08;;;;;;;8.32;7.53;;;18.10;99.90;;;;;;5121194;28;20429;-83
2022/04/12 10:48:34;;;;;;;11.23;7.97;;;18.40;99.90;;;;;;5103842;28;20394;-84
2022/04/12 10:51:05;;;;;;;10.50;7.60;;;18.30;99.90;;;;;;5106312;28;20542;-85
2022/04/12 10:53:39;;;;;;;8.50;6.63;;;18.20;99.90;;;;;;5100206;28;20430;-83
2022/04/12 10:56:07;;;;;;;9.35;6.93;;;18.00;99.90;;;;;;5107152;28;20364;-83
2022/04/12 10:58:37;;;;;;;11.47;7.47;;;18.10;99.90;;;;;;5106832;28;20378;-84
2022/04/12 11:01:24;;;;;;;7.82;7.05;;;18.40;99.90;;;;;;5100868;28;20469;-84
2022/04/12 11:04:05;;;;;;;7.88;7.13;;;18.30;99.90;;;;;;5098681;28;20386;-82
2022/04/12 11:06:35;;;;;;;6.68;5.93;;;18.30;99.90;;;;;;5096869;28;20390;-83
2022/04/12 11:09:16;;;;;;;11.40;7.03;;;18.40;99.90;;;;;;5113664;28;20414;-83
2022/04/12 11:11:52;;;;;;;7.05;6.35;;;18.80;99.90;;;;;;5110920;28;20521;-84
2022/04/12 11:14:36;;;;;;;6.88;5.60;;;19.20;99.90;;;;;;5100121;28;20761;-84
2022/04/12 11:17:07;;;;;;;5.88;4.80;;;19.50;99.90;;;;;;5100824;28;20370;-84
2022/04/12 11:20:00;;;;;;;5.65;4.70;;;19.60;99.90;;;;;;5098050;28;20398;-84
2022/04/12 11:22:43;;;;;;;5.60;4.93;;;19.80;99.90;;;;;;5098885;28;20393;-83
2022/04/12 11:25:13;;;;;;;5.30;4.80;;;19.90;99.90;;;;;;5097199;28;20404;-83
2022/04/12 11:27:49;;;;;;;8.70;4.40;;;20.10;99.90;;;;;;5115949;28;20384;-83
2022/04/12 11:30:18;;;;;;;6.53;3.80;;;20.20;99.90;;;;;;5124189;28;20372;-83
2022/04/12 11:32:43;;;;;;;3.30;2.70;;;20.30;99.90;;;;;;5116607;28;20467;-83
2022/04/12 11:35:09;;;;;;;3.07;2.77;;;20.40;99.90;;;;;;5120572;28;20372;-83
2022/04/12 11:37:41;;;;;;;4.30;2.72;;;20.30;99.30;;;;;;5113303;28;20388;-84
2022/04/12 11:40:10;;;;;;;3.17;2.70;;;20.30;99.90;;;;;;5116158;28;20390;-84
2022/04/12 11:42:36;;;;;;;3.37;2.60;;;20.30;99.90;;;;;;5099187;28;20405;-84
2022/04/12 11:45:02;;;;;;;3.67;2.90;;;20.40;99.90;;;;;;5101139;28;20872;-84
2022/04/12 11:47:28;;;;;;;15.17;3.20;;;20.50;99.10;;;;;;5099529;28;20386;-84
2022/04/12 11:49:54;;;;;;;4.82;2.80;;;20.50;99.60;;;;;;5103459;28;20424;-84
2022/04/12 11:52:20;;;;;;;3.40;2.53;;;20.60;99.90;;;;;;5108298;28;20408;-84
2022/04/12 11:54:47;;;;;;;3.17;2.50;;;20.70;99.90;;;;;;5101188;28;20398;-83
2022/04/12 11:57:21;;;;;;;4.78;2.72;;;20.80;99.90;;;;;;5103283;28;20870;-84
2022/04/12 11:59:50;;;;;;;3.33;2.78;;;21.00;98.10;;;;;;5100426;28;20414;-84
2022/04/12 12:02:22;;;;;;;4.90;2.65;;;21.00;99.90;;;;;;5099177;28;21063;-82
2022/04/12 12:05:05;;;;;;;3.92;2.80;;;21.00;98.20;;;;;;5100153;28;20451;-82
2022/04/12 12:07:30;;;;;;;3.97;2.83;;;21.20;98.00;;;;;;5102971;28;20860;-84
2022/04/12 12:10:01;;;;;;;3.92;2.97;;;21.20;98.40;;;;;;5099031;28;20400;-82
2022/04/12 12:12:34;;;;;;;2.63;2.42;;;21.40;97.90;;;;;;5101180;28;20484;-83
2022/04/12 12:15:15;;;;;;;5.63;3.30;;;21.30;98.80;;;;;;5099962;28;20402;-83
2022/04/12 12:17:41;;;;;;;3.35;2.63;;;21.20;98.30;;;;;;5099905;28;20736;-83
2022/04/12 12:20:08;;;;;;;4.68;2.72;;;21.30;98.60;;;;;;5098657;28;20464;-85
2022/04/12 12:22:43;;;;;;;3.95;2.83;;;21.40;98.80;;;;;;5097661;28;20423;-85
2022/04/12 12:25:23;;;;;;;3.67;2.70;;;21.30;98.90;;;;;;5099227;28;20382;-83
2022/04/12 12:27:59;;;;;;;5.45;2.40;;;21.30;98.80;;;;;;5100872;28;20386;-83
2022/04/12 12:30:38;;;;;;;4.60;2.72;;;21.10;99.00;;;;;;5096437;28;20390;-83
2022/04/12 12:33:19;;;;;;;3.88;2.28;;;21.10;98.40;;;;;;5127262;22;20418;-83
2022/04/12 12:36:01;;;;;;;3.97;2.60;;;21.30;97.80;;;;;;5080547;28;20378;-83
2022/04/12 12:38:39;;;;;;;3.90;2.30;;;21.60;97.40;;;;;;5098642;28;20408;-83
2022/04/12 12:41:11;;;;;;;4.05;2.10;;;21.50;96.50;;;;;;5097459;28;20462;-83
2022/04/12 12:43:40;;;;;;;2.35;1.85;;;21.50;96.00;;;;;;5103969;28;20434;-83
2022/04/12 12:46:18;;;;;;;1.83;1.50;;;21.50;97.20;;;;;;5110648;28;20926;-83
2022/04/12 12:49:09;;;;;;;3.60;1.92;;;21.50;96.20;;;;;;5093076;28;20477;-85
2022/04/12 12:51:38;;;;;;;2.25;1.83;;;21.40;95.20;;;;;;5083132;28;20454;-84
2022/04/12 12:54:05;;;;;;;3.05;1.60;;;21.40;95.50;;;;;;5100109;28;20378;-85
2022/04/12 12:56:35;;;;;;;2.00;1.35;;;21.60;94.70;;;;;;5081133;28;20390;-85
2022/04/12 12:59:21;;;;;;;3.00;1.38;;;21.60;95.20;;;;;;5104595;28;20380;-81
2022/04/12 13:01:49;;;;;;;1.73;1.30;;;21.60;94.30;;;;;;5098670;28;20388;-83